Wetterdaten: Woche 09.07.18 - 15.07.18 (KW28)
Datum Zeit Temp. A. Feuchte A. Luftdruck Regen Wind Richtung Taupunkt Windchill Windben
09.07.2018 00:00 20,2 C 57 % 1017,0 hPa 0,0 l/m 1,7 km/h N 11,3 C 20,2 C 8,0 km/h
09.07.2018 01:00 19,7 C 59 % 1017,0 hPa 0,0 l/m 1,7 km/h N 11,3 C 19,7 C 8,4 km/h
09.07.2018 02:00 19,3 C 60 % 1016,7 hPa 0,0 l/m 2,0 km/h N 11,2 C 19,3 C 8,4 km/h
09.07.2018 03:00 19,2 C 61 % 1016,5 hPa 0,0 l/m 2,7 km/h N 11,4 C 19,2 C 8,8 km/h
09.07.2018 04:00 19,1 C 62 % 1016,3 hPa 0,0 l/m 2,0 km/h N 11,5 C 19,1 C 7,6 km/h
09.07.2018 05:00 19,2 C 62 % 1016,3 hPa 0,0 l/m 3,1 km/h N 11,8 C 19,2 C 8,4 km/h
09.07.2018 06:00 19,8 C 62 % 1016,4 hPa 0,0 l/m 5,6 km/h N 12,2 C 19,6 C 15,3 km/h
09.07.2018 07:00 20,4 C 61 % 1016,5 hPa 0,0 l/m 7,7 km/h N 12,6 C 19,9 C 21,3 km/h
09.07.2018 08:00 21,1 C 61 % 1016,6 hPa 0,0 l/m 6,2 km/h N 13,2 C 20,9 C 19,3 km/h
09.07.2018 09:00 22,5 C 58 % 1016,5 hPa 0,0 l/m 4,8 km/h N 13,9 C 22,5 C 15,7 km/h
09.07.2018 10:00 23,8 C 56 % 1016,3 hPa 0,0 l/m 6,0 km/h N 14,5 C 23,7 C 19,3 km/h
09.07.2018 11:00 24,6 C 54 % 1016,0 hPa 0,0 l/m 6,5 km/h N 14,5 C 24,4 C 21,3 km/h
09.07.2018 12:00 25,4 C 52 % 1015,6 hPa 0,0 l/m 5,6 km/h N 14,7 C 25,4 C 20,1 km/h
09.07.2018 13:00 25,8 C 51 % 1015,2 hPa 0,0 l/m 8,3 km/h N 14,9 C 25,4 C 23,7 km/h
09.07.2018 14:00 25,9 C 50 % 1014,7 hPa 0,0 l/m 10,3 km/h N 14,6 C 25,0 C 25,4 km/h
09.07.2018 15:00 25,9 C 51 % 1014,4 hPa 0,0 l/m 9,4 km/h N 14,8 C 25,3 C 24,1 km/h
09.07.2018 16:00 26,0 C 50 % 1014,0 hPa 0,0 l/m 8,9 km/h N 14,6 C 25,5 C 29,0 km/h
09.07.2018 17:00 26,0 C 49 % 1013,7 hPa 0,0 l/m 6,4 km/h N 14,4 C 26,0 C 23,3 km/h
09.07.2018 18:00 26,3 C 50 % 1013,3 hPa 0,0 l/m 6,4 km/h N 14,8 C 26,1 C 23,4 km/h
09.07.2018 19:00 25,1 C 52 % 1013,4 hPa 0,0 l/m 8,9 km/h N 14,4 C 24,5 C 26,5 km/h
09.07.2018 20:00 23,7 C 53 % 1013,7 hPa 0,0 l/m 7,2 km/h N 13,4 C 23,5 C 25,8 km/h
09.07.2018 21:00 23,5 C 54 % 1013,9 hPa 0,0 l/m 5,6 km/h N 13,6 C 23,3 C 22,5 km/h
09.07.2018 22:00 22,8 C 57 % 1014,3 hPa 0,0 l/m 3,2 km/h N 13,8 C 22,8 C 16,9 km/h
09.07.2018 23:00 22,3 C 59 % 1014,3 hPa 0,0 l/m 6,4 km/h N 13,8 C 22,3 C 20,9 km/h
10.07.2018 00:00 22,1 C 60 % 1014,2 hPa 0,0 l/m 1,6 km/h N 14,0 C 22,1 C 8,1 km/h
10.07.2018 01:00 21,1 C 65 % 1013,9 hPa 0,0 l/m 0,0 km/h N 14,3 C 21,1 C 4,0 km/h
10.07.2018 02:00 20,5 C 67 % 1013,3 hPa 0,0 l/m 0,0 km/h N 14,1 C 20,5 C 7,2 km/h
10.07.2018 03:00 20,0 C 68 % 1013,0 hPa 0,0 l/m 0,0 km/h N 13,7 C 20,0 C 2,4 km/h
10.07.2018 04:00 19,1 C 71 % 1012,9 hPa 0,0 l/m 0,0 km/h N 13,7 C 19,1 C 0,0 km/h
10.07.2018 05:00 18,8 C 74 % 1012,9 hPa 0,0 l/m 0,0 km/h N 14,0 C 18,8 C 0,0 km/h
10.07.2018 06:00 18,3 C 77 % 1012,8 hPa 0,0 l/m 0,0 km/h N 14,0 C 18,3 C 1,6 km/h
10.07.2018 07:00 18,8 C 77 % 1012,9 hPa 0,0 l/m 0,0 km/h N 14,5 C 18,8 C 2,4 km/h
10.07.2018 08:00 21,1 C 68 % 1012,7 hPa 0,0 l/m 0,0 km/h N 14,9 C 21,1 C 4,0 km/h
10.07.2018 09:00 24,5 C 60 % 1012,5 hPa 0,0 l/m 1,6 km/h N 16,0 C 24,5 C 8,0 km/h
10.07.2018 10:00 27,0 C 52 % 1012,0 hPa 0,0 l/m 0,0 km/h N 16,1 C 27,0 C 7,3 km/h
10.07.2018 11:00 27,6 C 50 % 1011,7 hPa 0,0 l/m 0,8 km/h N 16,3 C 27,6 C 7,2 km/h
10.07.2018 12:00 27,8 C 50 % 1011,3 hPa 0,0 l/m 0,8 km/h N 16,4 C 27,8 C 12,1 km/h
10.07.2018 13:00 27,0 C 53 % 1011,2 hPa 0,0 l/m 0,0 km/h N 16,4 C 27,0 C 6,4 km/h
10.07.2018 14:00 21,6 C 72 % 1012,5 hPa 0,3 l/m 4,0 km/h N 16,2 C 21,6 C 16,1 km/h
10.07.2018 15:00 19,8 C 80 % 1012,6 hPa 2,3 l/m 0,8 km/h N 16,1 C 19,8 C 7,2 km/h
10.07.2018 16:00 19,2 C 81 % 1012,3 hPa 0,0 l/m 0,8 km/h N 15,8 C 19,2 C 8,1 km/h
10.07.2018 17:00 18,7 C 81 % 1012,7 hPa 0,0 l/m 2,4 km/h N 15,4 C 18,7 C 8,9 km/h
10.07.2018 18:00 18,5 C 81 % 1012,5 hPa 0,3 l/m 3,2 km/h N 15,2 C 18,5 C 10,5 km/h
10.07.2018 19:00 18,9 C 80 % 1012,8 hPa 0,0 l/m 0,0 km/h N 15,3 C 18,9 C 4,8 km/h
10.07.2018 20:00 18,5 C 81 % 1013,5 hPa 0,3 l/m 3,2 km/h N 15,1 C 18,5 C 11,3 km/h
10.07.2018 21:00 17,9 C 81 % 1013,8 hPa 4,2 l/m 0,0 km/h N 14,6 C 17,9 C 4,8 km/h
10.07.2018 22:00 17,3 C 82 % 1014,1 hPa 2,3 l/m 0,0 km/h N 14,1 C 17,3 C 0,8 km/h
10.07.2018 23:00 17,2 C 82 % 1014,2 hPa 1,0 l/m 0,0 km/h N 14,0 C 17,2 C 0,8 km/h
11.07.2018 00:00 16,8 C 82 % 1013,7 hPa 0,0 l/m 0,0 km/h N 13,8 C 16,8 C 0,0 km/h
11.07.2018 01:00 16,8 C 82 % 1013,5 hPa 0,0 l/m 0,0 km/h N 13,8 C 16,8 C 1,6 km/h
11.07.2018 02:00 16,5 C 82 % 1013,1 hPa 0,0 l/m 0,0 km/h N 13,4 C 16,5 C 3,2 km/h
11.07.2018 03:00 16,2 C 82 % 1012,8 hPa 0,0 l/m 0,0 km/h N 13,1 C 16,2 C 0,8 km/h
11.07.2018 04:00 15,6 C 82 % 1012,7 hPa 0,0 l/m 0,0 km/h N 12,6 C 15,6 C 0,0 km/h
11.07.2018 05:00 15,5 C 83 % 1012,8 hPa 0,0 l/m 0,0 km/h N 12,6 C 15,5 C 0,8 km/h
11.07.2018 06:00 15,5 C 83 % 1013,0 hPa 0,3 l/m 0,0 km/h N 12,6 C 15,5 C 2,4 km/h
11.07.2018 07:00 16,3 C 83 % 1013,2 hPa 0,0 l/m 0,0 km/h N 13,4 C 16,3 C 0,8 km/h
11.07.2018 08:00 16,8 C 83 % 1013,6 hPa 0,0 l/m 0,0 km/h N 13,9 C 16,8 C 1,6 km/h
11.07.2018 09:00 17,3 C 83 % 1013,7 hPa 0,0 l/m 4,0 km/h N 14,3 C 17,3 C 10,5 km/h
11.07.2018 10:00 18,8 C 81 % 1013,7 hPa 0,0 l/m 4,8 km/h N 15,4 C 18,8 C 13,7 km/h
11.07.2018 11:00 19,9 C 74 % 1013,5 hPa 0,0 l/m 4,0 km/h N 15,1 C 19,9 C 12,9 km/h
11.07.2018 12:00 20,3 C 71 % 1013,6 hPa 0,0 l/m 3,2 km/h N 14,8 C 20,3 C 10,5 km/h
11.07.2018 13:00 21,4 C 68 % 1013,3 hPa 0,0 l/m 4,0 km/h N 15,2 C 21,4 C 14,5 km/h
11.07.2018 14:00 21,5 C 66 % 1013,1 hPa 0,0 l/m 2,4 km/h N 14,8 C 21,5 C 12,9 km/h
11.07.2018 15:00 21,3 C 61 % 1013,5 hPa 0,0 l/m 7,2 km/h N 13,3 C 21,0 C 20,1 km/h
11.07.2018 16:00 20,3 C 62 % 1013,9 hPa 0,0 l/m 8,0 km/h N 12,7 C 19,6 C 23,3 km/h
11.07.2018 17:00 18,8 C 70 % 1013,9 hPa 0,0 l/m 8,0 km/h N 13,0 C 18,0 C 26,5 km/h
11.07.2018 18:00 18,2 C 74 % 1013,7 hPa 0,0 l/m 4,8 km/h N 13,4 C 18,2 C 13,7 km/h
11.07.2018 19:00 18,5 C 70 % 1014,0 hPa 0,0 l/m 4,0 km/h N 12,9 C 18,5 C 12,1 km/h
11.07.2018 20:00 18,8 C 69 % 1014,0 hPa 0,0 l/m 4,0 km/h N 12,9 C 18,8 C 13,7 km/h
11.07.2018 21:00 17,7 C 71 % 1014,4 hPa 0,0 l/m 0,0 km/h N 12,3 C 17,7 C 3,2 km/h
11.07.2018 22:00 15,9 C 77 % 1014,7 hPa 0,0 l/m 0,0 km/h N 11,9 C 15,9 C 3,2 km/h
11.07.2018 23:00 15,2 C 81 % 1014,7 hPa 0,0 l/m 0,0 km/h N 11,9 C 15,2 C 3,2 km/h
12.07.2018 00:00 15,1 C 79 % 1014,8 hPa 0,0 l/m 0,0 km/h N 11,5 C 15,1 C 8,1 km/h
12.07.2018 01:00 15,1 C 78 % 1014,8 hPa 0,0 l/m 0,0 km/h N 11,2 C 15,1 C 0,0 km/h
12.07.2018 02:00 13,8 C 79 % 1015,0 hPa 0,0 l/m 0,0 km/h N 10,1 C 13,8 C 0,0 km/h
12.07.2018 03:00 12,9 C 81 % 1015,0 hPa 0,0 l/m 0,0 km/h N 9,6 C 12,9 C 0,0 km/h
12.07.2018 04:00 12,4 C 82 % 1015,2 hPa 0,0 l/m 0,0 km/h N 9,4 C 12,4 C 0,8 km/h
12.07.2018 05:00 11,7 C 82 % 1015,3 hPa 0,0 l/m 0,0 km/h N 8,7 C 11,7 C 0,0 km/h
12.07.2018 06:00 11,9 C 82 % 1015,3 hPa 0,0 l/m 0,0 km/h N 8,9 C 11,9 C 0,0 km/h
12.07.2018 07:00 13,4 C 82 % 1015,3 hPa 0,0 l/m 0,0 km/h N 10,4 C 13,4 C 0,8 km/h
12.07.2018 08:00 16,6 C 79 % 1015,3 hPa 0,0 l/m 0,8 km/h N 12,9 C 16,6 C 8,1 km/h
12.07.2018 09:00 20,2 C 61 % 1015,2 hPa 0,0 l/m 7,2 km/h N 12,4 C 19,9 C 21,7 km/h
12.07.2018 10:00 21,5 C 58 % 1015,3 hPa 0,0 l/m 5,6 km/h N 12,8 C 21,5 C 22,5 km/h
12.07.2018 11:00 22,0 C 56 % 1015,0 hPa 0,0 l/m 5,6 km/h N 12,6 C 22,0 C 16,9 km/h
12.07.2018 12:00 22,9 C 56 % 1014,9 hPa 0,0 l/m 5,6 km/h N 13,6 C 22,9 C 23,3 km/h
12.07.2018 13:00 24,0 C 52 % 1014,5 hPa 0,0 l/m 5,6 km/h N 13,5 C 24,0 C 20,1 km/h
12.07.2018 14:00 23,9 C 55 % 1014,3 hPa 0,0 l/m 6,4 km/h N 14,1 C 23,9 C 21,7 km/h
12.07.2018 15:00 24,7 C 52 % 1014,1 hPa 0,0 l/m 4,0 km/h N 14,0 C 24,7 C 16,9 km/h
12.07.2018 16:00 24,7 C 50 % 1014,0 hPa 0,0 l/m 3,2 km/h N 13,4 C 24,7 C 16,1 km/h
12.07.2018 17:00 24,7 C 49 % 1013,9 hPa 0,0 l/m 7,4 km/h N 13,1 C 24,4 C 19,8 km/h
12.07.2018 18:00 25,0 C 47 % 1013,8 hPa 0,0 l/m 5,9 km/h N 12,8 C 24,8 C 20,9 km/h
12.07.2018 19:00 24,5 C 48 % 1014,0 hPa 0,0 l/m 4,8 km/h N 12,8 C 24,5 C 17,7 km/h
12.07.2018 20:00 22,9 C 54 % 1014,2 hPa 0,0 l/m 0,4 km/h N 13,0 C 22,9 C 4,8 km/h
12.07.2018 21:00 21,0 C 60 % 1015,0 hPa 0,0 l/m 0,0 km/h N 13,0 C 21,0 C 0,4 km/h
12.07.2018 22:00 18,7 C 67 % 1015,5 hPa 0,0 l/m 0,0 km/h N 12,5 C 18,7 C 0,4 km/h
12.07.2018 23:00 17,0 C 72 % 1015,7 hPa 0,0 l/m 0,0 km/h N 12,0 C 17,0 C 0,0 km/h
13.07.2018 00:00 15,8 C 77 % 1015,7 hPa 0,0 l/m 0,0 km/h N 11,8 C 15,8 C 0,0 km/h
13.07.2018 01:00 15,2 C 79 % 1015,8 hPa 0,0 l/m 0,0 km/h N 11,5 C 15,2 C 0,8 km/h
13.07.2018 02:00 14,5 C 80 % 1015,9 hPa 0,0 l/m 0,0 km/h N 11,0 C 14,5 C 0,0 km/h
13.07.2018 03:00 13,8 C 81 % 1015,9 hPa 0,0 l/m 0,0 km/h N 10,5 C 13,8 C 0,4 km/h
13.07.2018 04:00 13,9 C 81 % 1015,9 hPa 0,0 l/m 0,0 km/h N 10,8 C 13,9 C 1,1 km/h
13.07.2018 05:00 16,7 C 74 % 1015,8 hPa 0,0 l/m 0,7 km/h N 11,9 C 16,7 C 8,1 km/h
13.07.2018 06:00 17,2 C 71 % 1016,2 hPa 0,0 l/m 0,0 km/h N 11,8 C 17,2 C 0,8 km/h
13.07.2018 07:00 19,3 C 65 % 1015,9 hPa 0,0 l/m 3,4 km/h N 12,5 C 19,3 C 15,7 km/h
13.07.2018 08:00 22,0 C 57 % 1015,9 hPa 0,0 l/m 6,9 km/h N 12,9 C 21,7 C 20,5 km/h
13.07.2018 09:00 23,1 C 55 % 1016,3 hPa 0,0 l/m 10,2 km/h N 13,6 C 22,1 C 25,3 km/h
13.07.2018 10:00 24,0 C 54 % 1016,3 hPa 0,0 l/m 9,1 km/h N 14,1 C 23,2 C 26,1 km/h
13.07.2018 11:00 24,9 C 53 % 1016,3 hPa 0,0 l/m 8,3 km/h N 14,5 C 24,4 C 23,7 km/h
13.07.2018 12:00 25,8 C 50 % 1016,1 hPa 0,0 l/m 8,6 km/h N 14,5 C 25,2 C 25,0 km/h
13.07.2018 13:00 26,4 C 49 % 1015,8 hPa 0,0 l/m 8,1 km/h N 14,7 C 26,1 C 23,7 km/h
13.07.2018 14:00 27,3 C 48 % 1015,5 hPa 0,0 l/m 5,4 km/h N 15,3 C 27,2 C 20,9 km/h
13.07.2018 15:00 27,3 C 48 % 1015,4 hPa 0,0 l/m 6,3 km/h N 15,1 C 27,1 C 23,7 km/h
13.07.2018 16:00 26,9 C 47 % 1015,2 hPa 0,0 l/m 9,2 km/h N 14,7 C 26,4 C 28,2 km/h
13.07.2018 17:00 26,5 C 48 % 1015,3 hPa 0,0 l/m 8,4 km/h N 14,5 C 26,2 C 23,3 km/h
13.07.2018 18:00 26,0 C 48 % 1015,5 hPa 0,0 l/m 5,6 km/h N 13,9 C 25,9 C 19,7 km/h
13.07.2018 19:00 23,8 C 56 % 1015,4 hPa 0,0 l/m 6,1 km/h N 14,5 C 23,4 C 19,7 km/h
13.07.2018 20:00 23,6 C 54 % 1015,3 hPa 0,0 l/m 0,7 km/h N 13,8 C 23,6 C 7,6 km/h
13.07.2018 21:00 23,0 C 56 % 1015,8 hPa 0,0 l/m 0,2 km/h N 13,9 C 23,0 C 2,4 km/h
13.07.2018 22:00 21,5 C 60 % 1016,2 hPa 0,0 l/m 0,1 km/h N 13,4 C 21,5 C 2,0 km/h
13.07.2018 23:00 19,8 C 66 % 1016,3 hPa 0,0 l/m 0,0 km/h N 13,3 C 19,8 C 0,4 km/h
14.07.2018 00:00 19,2 C 68 % 1016,4 hPa 0,0 l/m 0,2 km/h N 13,1 C 19,2 C 2,8 km/h
14.07.2018 01:00 18,7 C 69 % 1016,3 hPa 0,0 l/m 0,1 km/h N 13,0 C 18,7 C 1,2 km/h
14.07.2018 02:00 18,6 C 72 % 1016,2 hPa 0,0 l/m 1,0 km/h N 13,4 C 18,6 C 5,2 km/h
14.07.2018 03:00 20,1 C 64 % 1016,1 hPa 0,0 l/m 0,2 km/h N 13,0 C 20,1 C 1,6 km/h
14.07.2018 04:00 18,1 C 70 % 1016,2 hPa 0,0 l/m 0,0 km/h N 12,5 C 18,1 C 0,0 km/h
14.07.2018 05:00 17,5 C 74 % 1016,4 hPa 0,0 l/m 1,1 km/h N 12,7 C 17,5 C 6,0 km/h
14.07.2018 06:00 19,9 C 66 % 1016,5 hPa 0,0 l/m 0,8 km/h N 13,4 C 19,9 C 3,6 km/h
14.07.2018 07:00 20,0 C 69 % 1016,8 hPa 0,0 l/m 0,1 km/h N 14,1 C 20,0 C 1,2 km/h
14.07.2018 08:00 22,3 C 60 % 1016,9 hPa 0,0 l/m 4,3 km/h N 14,2 C 22,3 C 13,7 km/h
14.07.2018 09:00 24,6 C 56 % 1016,8 hPa 0,0 l/m 3,7 km/h N 15,2 C 24,6 C 13,3 km/h
14.07.2018 10:00 25,9 C 52 % 1016,6 hPa 0,0 l/m 3,0 km/h N 15,3 C 25,9 C 12,9 km/h
14.07.2018 11:00 26,9 C 50 % 1016,5 hPa 0,0 l/m 3,1 km/h N 15,6 C 26,9 C 13,3 km/h
14.07.2018 12:00 27,7 C 45 % 1016,0 hPa 0,0 l/m 3,9 km/h N 14,6 C 27,7 C 16,1 km/h
14.07.2018 13:00 28,1 C 43 % 1015,4 hPa 0,0 l/m 4,1 km/h N 14,3 C 28,1 C 15,7 km/h
14.07.2018 14:00 26,9 C 46 % 1015,0 hPa 0,0 l/m 5,1 km/h N 14,3 C 26,9 C 16,1 km/h
14.07.2018 15:00 26,7 C 43 % 1014,6 hPa 0,0 l/m 3,9 km/h N 13,0 C 26,7 C 14,9 km/h
14.07.2018 16:00 26,5 C 46 % 1014,8 hPa 0,0 l/m 6,5 km/h N 14,0 C 26,4 C 20,1 km/h
14.07.2018 17:00 25,4 C 51 % 1014,8 hPa 0,0 l/m 4,5 km/h N 14,6 C 25,4 C 15,3 km/h
14.07.2018 18:00 25,7 C 53 % 1014,6 hPa 0,0 l/m 3,4 km/h N 15,5 C 25,7 C 12,5 km/h
14.07.2018 19:00 25,8 C 52 % 1014,3 hPa 0,0 l/m 2,1 km/h N 15,1 C 25,8 C 9,7 km/h
14.07.2018 20:00 24,4 C 56 % 1014,1 hPa 0,0 l/m 0,8 km/h N 14,9 C 24,4 C 4,4 km/h
14.07.2018 21:00 22,1 C 62 % 1014,2 hPa 0,0 l/m 0,0 km/h N 14,4 C 22,1 C 0,8 km/h
14.07.2018 22:00 20,5 C 69 % 1014,5 hPa 0,0 l/m 0,2 km/h N 14,5 C 20,5 C 3,2 km/h
14.07.2018 23:00 20,0 C 70 % 1014,7 hPa 0,0 l/m 0,8 km/h N 14,3 C 20,0 C 4,8 km/h
15.07.2018 00:00 19,4 C 71 % 1014,6 hPa 0,0 l/m 0,0 km/h N 14,0 C 19,4 C 1,2 km/h
15.07.2018 01:00 18,9 C 72 % 1014,7 hPa 0,0 l/m 0,0 km/h N 13,7 C 18,9 C 0,0 km/h
15.07.2018 02:00 19,3 C 70 % 1014,5 hPa 0,0 l/m 0,7 km/h N 13,7 C 19,3 C 5,2 km/h
15.07.2018 03:00 19,9 C 68 % 1014,5 hPa 0,0 l/m 0,4 km/h N 13,8 C 19,9 C 2,8 km/h
15.07.2018 04:00 18,3 C 71 % 1014,6 hPa 0,0 l/m 0,0 km/h N 12,9 C 18,3 C 0,0 km/h
15.07.2018 05:00 16,8 C 76 % 1014,8 hPa 0,0 l/m 0,0 km/h N 12,4 C 16,8 C 0,0 km/h
15.07.2018 06:00 16,4 C 79 % 1014,8 hPa 0,0 l/m 0,0 km/h N 12,8 C 16,4 C 0,4 km/h
15.07.2018 07:00 18,2 C 77 % 1014,9 hPa 0,0 l/m 0,6 km/h N 14,1 C 18,2 C 3,2 km/h
15.07.2018 08:00 21,5 C 66 % 1015,0 hPa 0,0 l/m 3,0 km/h N 14,8 C 21,5 C 8,4 km/h
15.07.2018 09:00 23,9 C 58 % 1014,9 hPa 0,0 l/m 3,0 km/h N 15,2 C 23,9 C 8,9 km/h
15.07.2018 10:00 25,1 C 55 % 1014,8 hPa 0,0 l/m 2,5 km/h N 15,4 C 25,1 C 10,1 km/h
15.07.2018 11:00 26,1 C 50 % 1014,6 hPa 0,0 l/m 2,7 km/h N 14,9 C 26,1 C 13,7 km/h
15.07.2018 12:00 26,3 C 49 % 1014,4 hPa 0,0 l/m 3,1 km/h N 14,7 C 26,3 C 13,7 km/h
15.07.2018 13:00 26,9 C 43 % 1013,8 hPa 0,0 l/m 3,1 km/h N 13,3 C 26,9 C 13,7 km/h
15.07.2018 14:00 28,1 C 42 % 1013,0 hPa 0,0 l/m 2,4 km/h N 14,1 C 28,1 C 12,9 km/h
15.07.2018 15:00 28,1 C 42 % 1012,5 hPa 0,0 l/m 4,4 km/h N 14,0 C 28,1 C 16,5 km/h
15.07.2018 16:00 27,8 C 43 % 1012,2 hPa 0,0 l/m 4,3 km/h N 14,1 C 27,8 C 13,7 km/h
15.07.2018 17:00 27,8 C 43 % 1012,2 hPa 0,0 l/m 2,8 km/h N 14,2 C 27,8 C 10,9 km/h
15.07.2018 18:00 28,8 C 42 % 1011,7 hPa 0,0 l/m 1,1 km/h N 14,5 C 28,8 C 9,7 km/h
15.07.2018 19:00 28,8 C 41 % 1011,3 hPa 0,0 l/m 1,9 km/h N 14,3 C 28,8 C 8,4 km/h
15.07.2018 20:00 26,5 C 47 % 1011,2 hPa 0,0 l/m 2,2 km/h N 14,2 C 26,5 C 8,0 km/h
15.07.2018 21:00 23,9 C 54 % 1011,8 hPa 0,0 l/m 0,0 km/h N 13,9 C 23,9 C 0,8 km/h
15.07.2018 22:00 21,6 C 61 % 1012,0 hPa 0,0 l/m 0,0 km/h N 13,6 C 21,6 C 0,4 km/h
15.07.2018 23:00 20,8 C 65 % 1012,1 hPa 0,0 l/m 0,1 km/h N 14,1 C 20,8 C 2,4 km/h
Min-Datum _ 12.07.18 15.07.18 15.07.18 - 10.07.18 - 12.07.18 12.07.18 10.07.18
_ Min-Zeit 05:30 18:45 20:00 - 00:30 - 05:30 05:30 04:00
Minimum _ 11,6 C 39 % 1011,0 hPa - 0,0 km/h - 8,6 C 11,6 C 0,0 km/h
Max-Datum _ 15.07.18 11.07.18 09.07.18 10.07.18 09.07.18 - 10.07.18 15.07.18 09.07.18
_ Max-Zeit 19:00 05:00 00:45 21:30 14:30 - 13:30 18:45 16:00
Maximum _ 29,4 C 83 % 1017,1 hPa 4,2 l/m 12,2 km/h
N
- 16,9 C 29,3 C 30,6 km/h
N
Durchschnitt _ 21,2 C 63 % 1014,5 hPa #10,9 l/m 2,8 km/h N 13,6 C 21,2 C 10,3 km/h